Time;durP1;ratioP1;P1;durP2;ratioP2;P2;SDS_P1;SDS_P2;PMS_P1;PMS_P2;Temp;Humidity;BMP_temperature;BMP_pressure;BME280_temperature;BME280_humidity;BME280_pressure;Samples;Min_cycle;Max_cycle;Signal;HPM_P1;HPM_P2
2022/11/09 00:02:40;;;;;;;4.00;1.73;;;14.80;77.10;;;;;;9170476;19;20038;-63
2022/11/09 00:05:55;;;;;;;4.75;1.85;;;14.80;77.10;;;;;;9165911;19;20582;-66
2022/11/09 00:08:59;;;;;;;9.80;1.65;;;14.80;77.80;;;;;;9166446;19;20753;-63
2022/11/09 00:12:10;;;;;;;5.03;1.65;;;14.80;77.10;;;;;;9166202;19;20021;-64
2022/11/09 00:15:13;;;;;;;3.22;1.60;;;14.80;77.10;;;;;;9172094;19;20400;-64
2022/11/09 00:18:19;;;;;;;5.53;1.55;;;14.70;77.10;;;;;;9174766;19;20380;-64
2022/11/09 00:21:24;;;;;;;4.72;2.08;;;14.70;77.20;;;;;;9174799;19;20051;-64
2022/11/09 00:24:28;;;;;;;2.00;1.27;;;14.70;77.20;;;;;;9173260;19;20019;-62
2022/11/09 00:27:32;;;;;;;3.92;1.65;;;14.70;77.20;;;;;;9174023;19;20018;-63
2022/11/09 00:30:35;;;;;;;10.63;1.98;;;14.70;77.20;;;;;;9167687;19;20018;-64
2022/11/09 00:33:41;;;;;;;7.57;2.13;;;14.70;77.30;;;;;;9171520;19;20336;-65
2022/11/09 00:36:45;;;;;;;7.45;1.52;;;14.70;77.30;;;;;;9173302;19;20018;-63
2022/11/09 00:39:49;;;;;;;7.20;1.85;;;14.60;77.30;;;;;;9181642;19;20468;-62
2022/11/09 00:42:53;;;;;;;9.43;1.90;;;14.60;77.30;;;;;;9182699;19;20037;-63
2022/11/09 00:45:56;;;;;;;;;;;14.60;77.30;;;;;;9183332;19;20019;-61
2022/11/09 00:49:02;;;;;;;8.68;1.88;;;14.60;77.40;;;;;;9180317;19;20784;-62
2022/11/09 00:52:06;;;;;;;6.80;2.00;;;14.60;77.30;;;;;;9179914;19;20450;-64
2022/11/09 00:55:10;;;;;;;;;;;14.60;77.40;;;;;;9178657;19;20441;-62
2022/11/09 00:58:14;;;;;;;4.90;1.88;;;14.60;77.40;;;;;;9180129;19;19922;-63
2022/11/09 01:01:18;;;;;;;;;;;14.60;77.40;;;;;;9181609;19;20018;-64
2022/11/09 01:04:24;;;;;;;8.05;1.45;;;14.50;77.40;;;;;;9181493;19;19972;-65
2022/11/09 01:07:29;;;;;;;7.18;1.85;;;14.50;77.40;;;;;;9182085;19;20018;-62
2022/11/09 01:10:33;;;;;;;6.18;1.65;;;14.50;77.40;;;;;;9179969;19;20014;-61
2022/11/09 01:13:37;;;;;;;;;;;14.50;77.50;;;;;;9175260;19;20010;-65
2022/11/09 01:16:43;;;;;;;9.48;2.33;;;14.60;77.60;;;;;;9174493;19;20232;-61
2022/11/09 01:19:49;;;;;;;4.18;1.65;;;14.50;77.60;;;;;;9180568;19;20026;-63
2022/11/09 01:22:54;;;;;;;5.25;1.90;;;14.60;77.60;;;;;;9179456;19;20011;-62
2022/11/09 01:26:01;;;;;;;7.03;1.83;;;14.60;77.70;;;;;;9179678;19;20015;-63
2022/11/09 01:29:05;;;;;;;4.35;1.65;;;14.60;77.70;;;;;;9181181;19;20090;-63
2022/11/09 01:32:10;;;;;;;10.02;1.45;;;14.60;77.70;;;;;;9173699;19;20018;-64
2022/11/09 01:35:15;;;;;;;6.00;1.50;;;14.60;77.70;;;;;;9179806;19;20483;-63
2022/11/09 01:38:19;;;;;;;5.90;1.48;;;14.60;77.70;;;;;;9180681;19;20078;-63
2022/11/09 01:41:25;;;;;;;6.65;1.85;;;14.60;77.70;;;;;;9178444;19;20490;-63
2022/11/09 01:44:30;;;;;;;7.20;1.40;;;14.60;77.80;;;;;;9178738;19;20027;-63
2022/11/09 01:47:34;;;;;;;5.07;1.55;;;14.60;77.70;;;;;;9178057;19;20026;-66
2022/11/09 01:50:45;;;;;;;8.75;2.28;;;14.60;77.80;;;;;;9173331;19;20022;-64
2022/11/09 01:53:52;;;;;;;6.65;1.65;;;14.60;77.80;;;;;;9175975;19;20050;-64
2022/11/09 01:57:00;;;;;;;10.27;1.58;;;14.60;77.80;;;;;;9176276;19;20452;-65
2022/11/09 02:00:08;;;;;;;5.80;1.63;;;14.70;77.90;;;;;;9171500;19;20026;-64
2022/11/09 02:03:24;;;;;;;4.93;1.75;;;14.70;77.80;;;;;;9175832;19;20046;-63
2022/11/09 02:06:32;;;;;;;5.00;1.27;;;14.70;77.90;;;;;;9178106;19;20018;-61
2022/11/09 02:09:41;;;;;;;5.40;1.70;;;14.70;77.80;;;;;;9177801;19;20034;-62
2022/11/09 02:12:46;;;;;;;11.88;2.00;;;14.70;77.80;;;;;;9176189;19;20011;-62
2022/11/09 02:15:51;;;;;;;10.23;2.60;;;14.70;77.80;;;;;;9176905;19;20364;-63
2022/11/09 02:18:56;;;;;;;3.75;1.70;;;14.70;77.90;;;;;;9177580;19;20042;-63
2022/11/09 02:22:03;;;;;;;3.20;1.23;;;14.70;77.80;;;;;;9179438;19;20018;-63
2022/11/09 02:25:10;;;;;;;5.88;2.00;;;14.70;77.80;;;;;;9178204;19;20014;-65
2022/11/09 02:28:16;;;;;;;4.38;1.65;;;14.70;77.90;;;;;;9177328;19;20019;-63
2022/11/09 02:31:21;;;;;;;8.32;1.85;;;14.70;77.90;;;;;;9172729;19;20029;-63
2022/11/09 02:34:26;;;;;;;7.10;2.13;;;14.80;77.90;;;;;;9173267;19;20417;-61
2022/11/09 02:37:35;;;;;;;5.40;2.20;;;14.70;77.80;;;;;;9177748;19;20018;-67
2022/11/09 02:40:42;;;;;;;8.40;2.67;;;14.70;77.90;;;;;;9176657;19;20026;-65
2022/11/09 02:43:46;;;;;;;3.78;1.50;;;14.70;77.80;;;;;;9173782;19;20015;-64
2022/11/09 02:46:50;;;;;;;5.45;1.70;;;14.70;77.90;;;;;;9176395;19;20021;-63
2022/11/09 02:49:56;;;;;;;4.72;1.55;;;14.70;78.50;;;;;;9176768;19;20022;-64
2022/11/09 02:53:02;;;;;;;6.38;2.20;;;14.70;78.00;;;;;;9174931;19;20436;-65
2022/11/09 02:56:09;;;;;;;9.25;1.52;;;14.70;78.10;;;;;;9175794;19;20022;-62
2022/11/09 02:59:13;;;;;;;7.70;1.83;;;14.70;78.10;;;;;;9176627;19;20018;-64
2022/11/09 03:02:18;;;;;;;7.07;1.70;;;14.70;78.10;;;;;;9175366;19;20018;-63
2022/11/09 03:05:22;;;;;;;7.35;2.10;;;14.70;78.20;;;;;;9176120;19;20019;-67
2022/11/09 03:08:28;;;;;;;6.07;1.88;;;14.70;78.20;;;;;;9176370;19;20015;-62
2022/11/09 03:11:32;;;;;;;3.40;2.05;;;14.70;78.20;;;;;;9176695;19;20026;-63
2022/11/09 03:14:36;;;;;;;3.80;1.50;;;14.70;78.20;;;;;;9171497;19;20086;-62
2022/11/09 03:17:40;;;;;;;6.22;2.17;;;14.80;78.30;;;;;;9175808;19;20777;-68
2022/11/09 03:20:44;;;;;;;11.93;1.80;;;14.80;78.30;;;;;;9178141;19;20018;-64
2022/11/09 03:23:54;;;;;;;7.80;1.70;;;14.70;78.20;;;;;;9174822;19;20022;-63
2022/11/09 03:27:00;;;;;;;5.35;1.65;;;14.70;78.30;;;;;;9175212;19;20372;-63
2022/11/09 03:30:04;;;;;;;6.22;1.83;;;14.70;78.30;;;;;;9175232;19;20098;-65
2022/11/09 03:33:11;;;;;;;4.15;2.10;;;14.70;78.30;;;;;;9170149;19;20336;-64
2022/11/09 03:36:16;;;;;;;11.30;2.00;;;14.70;78.30;;;;;;9175325;19;20028;-63
2022/11/09 03:39:21;;;;;;;7.18;1.92;;;14.70;78.30;;;;;;9175210;19;20027;-62
2022/11/09 03:42:25;;;;;;;5.35;1.80;;;14.70;78.40;;;;;;9174685;19;20475;-62
2022/11/09 03:45:29;;;;;;;5.20;1.80;;;14.70;78.40;;;;;;9174558;19;20021;-62
2022/11/09 03:48:33;;;;;;;9.05;2.10;;;14.70;78.40;;;;;;9165330;19;20051;-62
2022/11/09 03:51:37;;;;;;;8.70;1.73;;;14.60;78.30;;;;;;9167195;19;20022;-63
2022/11/09 03:54:43;;;;;;;6.28;1.80;;;14.60;78.30;;;;;;9163032;19;20475;-63
2022/11/09 03:57:47;;;;;;;8.82;2.10;;;14.60;78.30;;;;;;9165967;19;20019;-63
2022/11/09 04:00:51;;;;;;;8.40;1.95;;;14.60;78.30;;;;;;9162962;19;20026;-63
2022/11/09 04:03:55;;;;;;;;;;;14.60;78.30;;;;;;9165430;19;20019;-66
2022/11/09 04:06:59;;;;;;;4.70;1.60;;;14.60;78.30;;;;;;9162475;19;19922;-62
2022/11/09 04:10:06;;;;;;;11.43;2.08;;;14.60;78.30;;;;;;9166955;19;20039;-62
2022/11/09 04:13:09;;;;;;;6.07;2.05;;;14.50;78.30;;;;;;9167348;19;20018;-65
2022/11/09 04:16:13;;;;;;;;;;;14.50;78.30;;;;;;9174593;19;20022;-65
2022/11/09 04:19:17;;;;;;;6.37;1.70;;;14.50;78.30;;;;;;9171050;19;20634;-63
2022/11/09 04:22:21;;;;;;;6.10;2.05;;;14.50;78.30;;;;;;9175110;19;20470;-62
2022/11/09 04:25:28;;;;;;;4.40;1.80;;;14.40;78.30;;;;;;9174587;19;20825;-63
2022/11/09 04:28:32;;;;;;;2.38;1.30;;;14.40;78.40;;;;;;9170185;19;20103;-63
2022/11/09 04:31:36;;;;;;;6.97;2.00;;;14.40;78.40;;;;;;9169142;19;20029;-63
2022/11/09 04:34:40;;;;;;;16.42;2.22;;;14.40;78.50;;;;;;9167431;19;20361;-65
2022/11/09 04:37:44;;;;;;;;;;;14.40;78.50;;;;;;9175099;19;20022;-63
2022/11/09 04:40:49;;;;;;;6.47;1.48;;;14.40;78.50;;;;;;9175148;19;19926;-62
2022/11/09 04:43:53;;;;;;;6.30;1.52;;;14.40;78.40;;;;;;9172767;19;20818;-61
2022/11/09 04:46:57;;;;;;;5.35;1.75;;;14.30;78.50;;;;;;9170945;19;20022;-62
2022/11/09 04:50:01;;;;;;;7.40;1.50;;;14.30;78.50;;;;;;9170713;19;20499;-63
2022/11/09 04:53:10;;;;;;;6.75;1.63;;;14.30;78.50;;;;;;9170683;19;20125;-63
2022/11/09 04:56:16;;;;;;;6.40;1.73;;;14.30;78.50;;;;;;9167819;19;20026;-67
2022/11/09 04:59:20;;;;;;;6.68;1.70;;;14.30;78.50;;;;;;9173000;19;20042;-61
2022/11/09 05:02:23;;;;;;;12.63;1.80;;;14.30;78.50;;;;;;9173356;19;20025;-64
2022/11/09 05:05:27;;;;;;;7.88;1.60;;;14.30;78.50;;;;;;9170710;19;20048;-61
2022/11/09 05:08:31;;;;;;;7.32;1.80;;;14.30;78.50;;;;;;9170702;19;20014;-65
2022/11/09 05:11:37;;;;;;;8.35;1.88;;;14.20;78.50;;;;;;9177309;19;20026;-64
2022/11/09 05:14:41;;;;;;;5.68;1.48;;;14.20;78.50;;;;;;9178009;19;20042;-63
2022/11/09 05:17:45;;;;;;;10.57;2.03;;;14.20;78.50;;;;;;9179964;19;20052;-66
2022/11/09 05:20:49;;;;;;;10.52;1.60;;;14.20;78.60;;;;;;9182236;19;20015;-65
2022/11/09 05:24:00;;;;;;;7.88;2.20;;;14.10;78.50;;;;;;9179600;19;20047;-63
2022/11/09 05:27:06;;;;;;;8.93;2.08;;;14.10;78.50;;;;;;9179723;19;20023;-63
2022/11/09 05:30:11;;;;;;;11.35;2.17;;;14.10;78.50;;;;;;9181000;19;20015;-64
2022/11/09 05:33:15;;;;;;;11.05;2.05;;;14.10;78.50;;;;;;9172466;19;20376;-63
2022/11/09 05:36:20;;;;;;;10.02;2.67;;;14.10;78.60;;;;;;9179182;19;20017;-62
2022/11/09 05:39:24;;;;;;;10.15;3.13;;;14.10;78.60;;;;;;9179935;19;20010;-63
2022/11/09 05:42:30;;;;;;;;;;;14.00;78.50;;;;;;9181488;19;20035;-65
2022/11/09 05:45:33;;;;;;;5.75;1.33;;;14.00;78.60;;;;;;9180242;19;19926;-63
2022/11/09 05:48:47;;;;;;;16.30;3.25;;;14.00;78.50;;;;;;9179693;19;20487;-62
2022/11/09 05:51:51;;;;;;;15.07;1.77;;;14.00;78.50;;;;;;9177938;19;20115;-62
2022/11/09 05:54:55;;;;;;;6.97;1.75;;;14.00;78.60;;;;;;9175244;19;20015;-63
2022/11/09 05:58:01;;;;;;;9.32;1.83;;;13.90;78.60;;;;;;9180855;19;20011;-62
2022/11/09 06:01:06;;;;;;;7.22;2.00;;;13.90;78.60;;;;;;9178952;19;20022;-62
2022/11/09 06:04:09;;;;;;;12.80;1.80;;;13.90;78.60;;;;;;9178954;19;20038;-62
2022/11/09 06:07:13;;;;;;;;;;;13.90;78.70;;;;;;9180904;19;20046;-61
2022/11/09 06:10:17;;;;;;;7.63;2.37;;;13.80;78.60;;;;;;9176256;19;19930;-61
2022/11/09 06:13:23;;;;;;;11.05;1.50;;;13.80;78.50;;;;;;9172182;19;20014;-61
2022/11/09 06:16:27;;;;;;;10.55;1.55;;;13.80;78.60;;;;;;9177440;19;20019;-61
2022/11/09 06:19:31;;;;;;;12.38;2.20;;;13.80;78.60;;;;;;9177902;19;20066;-63
2022/11/09 06:22:34;;;;;;;4.97;2.08;;;13.80;78.70;;;;;;9177100;19;20389;-64
2022/11/09 06:25:38;;;;;;;10.45;1.90;;;13.70;78.70;;;;;;9176970;19;20010;-63
2022/11/09 06:28:44;;;;;;;14.82;1.58;;;13.70;78.70;;;;;;9175286;19;20022;-63
2022/11/09 06:31:49;;;;;;;5.53;1.50;;;13.70;78.80;;;;;;9174122;19;20014;-63
2022/11/09 06:34:53;;;;;;;7.70;1.48;;;13.70;78.80;;;;;;9173286;19;20018;-64
2022/11/09 06:37:57;;;;;;;;;;;13.70;78.80;;;;;;9178402;19;20022;-64
2022/11/09 06:41:01;;;;;;;12.02;3.67;;;13.60;78.80;;;;;;9178646;19;19929;-63
2022/11/09 06:44:07;;;;;;;7.18;2.00;;;13.60;78.70;;;;;;9177815;19;20602;-63
2022/11/09 06:47:11;;;;;;;12.27;1.85;;;13.60;78.80;;;;;;9177133;19;20018;-65
2022/11/09 06:50:15;;;;;;;11.32;1.52;;;13.60;78.90;;;;;;9178794;19;20516;-61
2022/11/09 06:53:19;;;;;;;;;;;13.60;78.90;;;;;;9175685;19;20010;-62
2022/11/09 06:56:23;;;;;;;8.65;2.05;;;13.50;78.90;;;;;;9178406;19;19919;-63
2022/11/09 06:59:29;;;;;;;6.90;1.88;;;13.50;78.80;;;;;;9177261;19;20025;-64
2022/11/09 07:02:34;;;;;;;5.53;1.55;;;13.50;78.90;;;;;;9173191;19;20022;-63
2022/11/09 07:05:39;;;;;;;9.38;2.20;;;13.50;78.90;;;;;;9164451;19;20015;-68
2022/11/09 07:08:43;;;;;;;7.13;1.60;;;13.50;79.00;;;;;;9162889;19;20471;-67
2022/11/09 07:11:49;;;;;;;13.30;2.55;;;13.40;79.10;;;;;;9164034;19;20026;-66
2022/11/09 07:14:55;;;;;;;6.38;1.45;;;13.40;79.00;;;;;;9159001;19;20026;-61
2022/11/09 07:18:00;;;;;;;7.20;1.88;;;13.40;79.10;;;;;;9159241;19;20127;-65
2022/11/09 07:21:06;;;;;;;7.90;1.67;;;13.40;79.10;;;;;;9163063;19;20019;-63
2022/11/09 07:24:17;;;;;;;6.65;2.20;;;13.40;79.20;;;;;;9159607;19;20026;-65
2022/11/09 07:27:20;;;;;;;;;;;13.40;79.20;;;;;;9161982;19;20018;-62
2022/11/09 07:30:32;;;;;;;9.63;2.20;;;13.40;79.20;;;;;;9161346;19;19950;-66
2022/11/09 07:33:36;;;;;;;13.93;2.90;;;13.40;79.20;;;;;;9172233;19;20389;-62
2022/11/09 07:36:40;;;;;;;32.60;3.35;;;13.30;79.20;;;;;;9174374;19;20022;-63
2022/11/09 07:39:44;;;;;;;21.13;2.50;;;13.30;79.20;;;;;;9170458;19;20014;-64
2022/11/09 07:42:47;;;;;;;12.90;2.63;;;13.30;79.30;;;;;;9172910;19;20026;-63
2022/11/09 07:45:53;;;;;;;;;;;13.30;79.30;;;;;;9173840;19;20021;-62
2022/11/09 07:48:57;;;;;;;9.13;1.67;;;13.30;79.30;;;;;;9177361;19;19915;-62
2022/11/09 07:52:01;;;;;;;15.02;2.20;;;13.30;79.20;;;;;;9180544;19;20010;-64
2022/11/09 07:55:05;;;;;;;7.70;1.83;;;13.30;79.30;;;;;;9178357;19;20439;-66
2022/11/09 07:58:12;;;;;;;6.85;1.65;;;13.30;79.40;;;;;;9183326;19;20026;-62
2022/11/09 08:01:18;;;;;;;7.30;2.00;;;13.30;79.50;;;;;;9183758;19;20035;-62
2022/11/09 08:04:22;;;;;;;13.57;2.30;;;13.30;79.50;;;;;;9182540;19;20057;-63
2022/11/09 08:07:25;;;;;;;;;;;13.30;79.50;;;;;;9184819;19;20022;-63
2022/11/09 08:10:31;;;;;;;11.65;2.22;;;13.40;79.60;;;;;;9181350;19;19918;-62
2022/11/09 08:13:35;;;;;;;12.30;2.08;;;13.40;79.50;;;;;;9180957;19;20015;-63
2022/11/09 08:16:40;;;;;;;;;;;13.40;79.60;;;;;;9177577;19;20018;-62
2022/11/09 08:19:44;;;;;;;15.48;2.22;;;13.40;79.60;;;;;;9163223;19;20278;-65
2022/11/09 08:22:48;;;;;;;10.32;1.80;;;13.40;79.50;;;;;;9171733;19;20021;-65
2022/11/09 08:25:52;;;;;;;10.50;1.85;;;13.40;79.60;;;;;;9174076;19;20019;-62
2022/11/09 08:28:56;;;;;;;;;;;13.40;79.60;;;;;;9173924;19;20018;-62
2022/11/09 08:32:02;;;;;;;9.85;1.70;;;13.50;79.70;;;;;;9169851;19;20340;-63
2022/11/09 08:35:08;;;;;;;9.75;2.08;;;13.50;79.60;;;;;;9179929;19;20497;-62
2022/11/09 08:38:12;;;;;;;14.80;1.98;;;13.50;79.70;;;;;;9168159;19;20023;-63
2022/11/09 08:41:16;;;;;;;12.38;1.98;;;13.50;79.70;;;;;;9172137;19;20010;-63
2022/11/09 08:44:21;;;;;;;8.30;1.40;;;13.60;79.80;;;;;;9175299;19;20042;-64
2022/11/09 08:47:27;;;;;;;15.80;2.05;;;13.60;79.70;;;;;;9167811;19;20052;-61
2022/11/09 08:50:32;;;;;;;18.55;3.22;;;13.60;79.70;;;;;;9178876;19;20045;-63
2022/11/09 08:53:35;;;;;;;9.15;1.50;;;13.70;79.80;;;;;;9178515;19;20022;-61
2022/11/09 08:56:39;;;;;;;11.43;2.60;;;13.70;79.80;;;;;;9181531;19;20011;-64
2022/11/09 08:59:43;;;;;;;12.68;2.10;;;13.70;79.80;;;;;;9178714;19;20011;-67
2022/11/09 09:02:48;;;;;;;9.77;1.80;;;13.70;79.70;;;;;;9180385;19;20053;-63
2022/11/09 09:05:52;;;;;;;10.27;1.83;;;13.80;79.80;;;;;;9180965;19;20805;-63
2022/11/09 09:08:56;;;;;;;10.57;2.00;;;13.80;79.80;;;;;;9178241;19;20444;-64
2022/11/09 09:12:00;;;;;;;8.25;1.90;;;13.80;79.90;;;;;;9167334;19;20026;-64
2022/11/09 09:15:04;;;;;;;14.82;2.25;;;13.80;79.80;;;;;;9170697;19;20325;-64
2022/11/09 09:18:09;;;;;;;;;;;13.90;79.90;;;;;;9181486;19;20018;-62
2022/11/09 09:21:13;;;;;;;9.88;1.90;;;13.90;79.80;;;;;;9173383;19;20340;-65
2022/11/09 09:24:17;;;;;;;18.10;2.47;;;13.90;79.70;;;;;;9178815;19;20043;-63
2022/11/09 09:27:20;;;;;;;14.50;2.40;;;14.00;79.70;;;;;;9176034;19;20019;-63
2022/11/09 09:30:24;;;;;;;11.50;3.03;;;14.00;79.70;;;;;;9176590;19;20022;-65
2022/11/09 09:33:30;;;;;;;8.80;2.03;;;14.10;79.70;;;;;;9170368;19;20547;-64
2022/11/09 09:36:34;;;;;;;9.75;2.30;;;14.10;79.70;;;;;;9173343;19;20026;-65
2022/11/09 09:39:38;;;;;;;10.43;2.65;;;14.20;79.70;;;;;;9171643;19;20060;-64
2022/11/09 09:42:44;;;;;;;10.98;1.60;;;14.20;79.70;;;;;;9171501;19;20471;-65
2022/11/09 09:45:53;;;;;;;13.65;2.53;;;14.20;79.60;;;;;;9176629;19;20039;-63
2022/11/09 09:49:06;;;;;;;10.02;2.20;;;14.30;79.70;;;;;;9172892;19;20043;-66
2022/11/09 09:52:19;;;;;;;14.65;2.08;;;14.40;79.70;;;;;;9177894;19;20364;-67
2022/11/09 09:55:29;;;;;;;11.38;2.78;;;14.40;79.50;;;;;;9169164;19;20010;-65
2022/11/09 09:58:35;;;;;;;8.95;2.00;;;14.50;79.50;;;;;;9179505;19;20018;-67
2022/11/09 10:01:41;;;;;;;9.70;1.83;;;14.50;79.40;;;;;;9175834;19;20019;-65
2022/11/09 10:04:47;;;;;;;12.02;2.28;;;14.60;79.30;;;;;;9178021;19;20496;-67
2022/11/09 10:07:59;;;;;;;9.98;1.95;;;14.60;79.20;;;;;;9180279;19;20014;-64
2022/11/09 10:11:17;;;;;;;16.08;2.10;;;14.70;79.30;;;;;;9171080;19;20353;-68
2022/11/09 10:14:46;;;;;;;6.53;1.48;;;14.70;79.10;;;;;;9168475;19;20011;-63
2022/11/09 10:18:00;;;;;;;17.40;2.53;;;14.80;79.10;;;;;;9172411;19;20048;-63
2022/11/09 10:21:21;;;;;;;12.57;2.28;;;14.80;79.00;;;;;;9175900;19;20018;-64
2022/11/09 10:24:38;;;;;;;14.85;2.00;;;14.90;79.00;;;;;;9174194;19;20031;-64
2022/11/09 10:28:04;;;;;;;8.38;2.05;;;14.90;78.80;;;;;;9170541;19;20475;-63
2022/11/09 10:31:17;;;;;;;15.90;2.03;;;15.00;78.90;;;;;;9177624;19;20034;-63
2022/11/09 10:34:25;;;;;;;9.82;2.00;;;15.00;78.80;;;;;;9176698;19;20021;-63
2022/11/09 10:37:36;;;;;;;8.50;2.25;;;15.10;78.80;;;;;;9177122;19;20475;-65
2022/11/09 10:40:46;;;;;;;6.93;1.60;;;15.10;78.70;;;;;;9177016;19;20011;-62
2022/11/09 10:44:15;;;;;;;11.30;2.67;;;15.10;79.30;;;;;;9176649;19;20035;-63
2022/11/09 10:47:48;;;;;;;8.15;1.95;;;15.20;78.60;;;;;;9178454;19;20060;-63
2022/11/09 10:51:33;;;;;;;15.85;2.20;;;15.20;78.50;;;;;;9176356;19;20022;-64
2022/11/09 10:55:18;;;;;;;10.23;1.85;;;15.20;78.40;;;;;;9166905;19;20027;-66
2022/11/09 10:58:46;;;;;;;10.52;2.67;;;15.30;78.30;;;;;;9171121;19;20074;-66
2022/11/09 11:02:40;;;;;;;7.40;1.92;;;15.20;78.30;;;;;;9174239;19;20026;-63
2022/11/09 11:06:05;;;;;;;13.00;2.20;;;15.20;78.20;;;;;;9175204;19;20014;-63
2022/11/09 11:09:29;;;;;;;13.05;1.98;;;15.20;78.20;;;;;;9171661;19;20081;-63
2022/11/09 11:13:22;;;;;;;11.98;1.90;;;15.30;78.20;;;;;;9163503;19;20014;-64
2022/11/09 11:16:47;;;;;;;11.63;2.15;;;15.30;78.20;;;;;;9165210;19;20033;-63
2022/11/09 11:20:26;;;;;;;;;;;15.30;78.10;;;;;;9169198;19;20274;-65
2022/11/09 11:24:11;;;;;;;10.35;1.73;;;15.40;78.10;;;;;;9165381;19;19926;-65
2022/11/09 11:27:40;;;;;;;10.52;1.40;;;15.40;78.00;;;;;;9161858;19;20018;-65
2022/11/09 11:31:05;;;;;;;13.85;1.90;;;15.40;78.00;;;;;;9160428;19;20018;-64
2022/11/09 11:34:27;;;;;;;16.67;2.33;;;15.50;78.00;;;;;;9157653;19;20041;-64
2022/11/09 11:38:23;;;;;;;9.13;1.58;;;15.50;78.00;;;;;;9162417;19;20610;-63
2022/11/09 11:42:16;;;;;;;16.63;1.85;;;15.50;77.80;;;;;;9164845;19;20505;-69
2022/11/09 11:45:42;;;;;;;15.43;2.20;;;15.60;77.70;;;;;;9167527;19;20022;-65
2022/11/09 11:49:36;;;;;;;12.23;1.98;;;15.60;77.70;;;;;;9163904;19;20038;-66
2022/11/09 11:53:10;;;;;;;11.90;3.13;;;15.60;77.60;;;;;;9169671;19;20026;-66
2022/11/09 11:56:37;;;;;;;12.65;2.20;;;15.60;77.60;;;;;;9172695;19;20018;-66
2022/11/09 12:00:12;;;;;;;6.07;1.50;;;15.60;77.60;;;;;;9176055;19;20426;-65
2022/11/09 12:03:42;;;;;;;6.50;1.52;;;15.60;77.50;;;;;;9175082;19;20014;-66
2022/11/09 12:07:19;;;;;;;7.75;1.60;;;15.60;77.40;;;;;;9174494;19;20019;-64
2022/11/09 12:10:54;;;;;;;9.75;1.80;;;15.60;77.40;;;;;;9174717;19;20014;-66
2022/11/09 12:14:28;;;;;;;11.98;2.58;;;15.60;77.30;;;;;;9171798;19;20007;-68
2022/11/09 12:18:02;;;;;;;11.05;1.95;;;15.60;77.40;;;;;;9173571;19;20021;-66
2022/11/09 12:21:32;;;;;;;6.68;1.60;;;15.60;77.30;;;;;;9173607;19;20015;-65
2022/11/09 12:25:02;;;;;;;10.38;2.00;;;15.60;77.30;;;;;;9174501;19;20038;-66
2022/11/09 12:28:48;;;;;;;10.52;1.80;;;15.60;77.10;;;;;;9172542;19;20050;-66
2022/11/09 12:32:20;;;;;;;12.82;1.77;;;15.60;77.10;;;;;;9174522;19;20098;-65
2022/11/09 12:35:47;;;;;;;11.15;2.40;;;15.60;77.00;;;;;;9175828;19;20443;-65
2022/11/09 12:39:17;;;;;;;7.95;1.90;;;15.60;77.00;;;;;;9177521;19;20337;-66
2022/11/09 12:42:45;;;;;;;9.52;1.80;;;15.60;77.00;;;;;;9180527;19;20018;-65
2022/11/09 12:46:12;;;;;;;13.32;2.10;;;15.60;77.00;;;;;;9181162;19;20034;-66
2022/11/09 12:49:38;;;;;;;7.18;1.77;;;15.50;76.90;;;;;;9179696;19;20023;-69
2022/11/09 12:53:05;;;;;;;10.10;1.77;;;15.50;76.80;;;;;;9175666;19;20010;-65
2022/11/09 12:56:32;;;;;;;12.45;1.73;;;15.50;76.90;;;;;;9180371;19;20487;-67
2022/11/09 12:59:56;;;;;;;11.40;1.50;;;15.50;77.00;;;;;;9180020;19;20015;-67
2022/11/09 13:03:24;;;;;;;6.97;1.70;;;15.40;76.90;;;;;;9182105;19;20373;-65
2022/11/09 13:07:19;;;;;;;9.50;1.30;;;15.40;76.90;;;;;;9180041;19;20014;-67
2022/11/09 13:10:41;;;;;;;8.63;2.10;;;15.40;76.90;;;;;;9178409;19;20042;-66
2022/11/09 13:14:33;;;;;;;7.70;1.38;;;15.30;77.00;;;;;;9178095;19;20513;-66
2022/11/09 13:18:00;;;;;;;13.85;1.52;;;15.30;76.90;;;;;;9172637;19;20022;-68
2022/11/09 13:21:38;;;;;;;9.35;1.23;;;15.30;77.00;;;;;;9177934;19;20501;-66
2022/11/09 13:25:02;;;;;;;8.65;1.27;;;15.30;76.90;;;;;;9179011;19;20018;-66
2022/11/09 13:28:45;;;;;;;19.90;3.30;;;15.30;77.00;;;;;;9179539;19;20023;-66
2022/11/09 13:32:26;;;;;;;14.15;1.95;;;15.30;76.80;;;;;;9178934;19;20645;-66
2022/11/09 13:36:19;;;;;;;7.38;1.60;;;15.30;76.80;;;;;;9175814;19;20075;-66
2022/11/09 13:39:45;;;;;;;8.35;1.85;;;15.40;76.80;;;;;;9177752;19;20056;-63
2022/11/09 13:43:19;;;;;;;8.95;1.83;;;15.40;76.80;;;;;;9180714;19;20520;-66
2022/11/09 13:46:47;;;;;;;3.83;1.20;;;15.40;76.70;;;;;;9178777;19;20029;-65
2022/11/09 13:50:18;;;;;;;9.60;1.88;;;15.40;76.70;;;;;;9178710;19;20353;-67
2022/11/09 13:53:56;;;;;;;10.73;1.88;;;15.40;76.60;;;;;;9174524;19;20364;-64
2022/11/09 13:57:21;;;;;;;8.73;1.33;;;15.40;76.40;;;;;;9179919;19;20040;-65
2022/11/09 14:00:47;;;;;;;5.22;1.52;;;15.40;76.40;;;;;;9178214;19;20550;-63
2022/11/09 14:04:21;;;;;;;12.25;2.17;;;15.40;76.40;;;;;;9177824;19;20026;-64
2022/11/09 14:07:44;;;;;;;5.53;1.05;;;15.30;76.20;;;;;;9172857;19;20007;-65
2022/11/09 14:11:30;;;;;;;9.00;1.35;;;15.30;76.30;;;;;;9175837;19;20357;-63
2022/11/09 14:15:13;;;;;;;10.02;1.60;;;15.30;76.10;;;;;;9172117;19;20026;-65
2022/11/09 14:18:47;;;;;;;13.38;1.75;;;15.30;76.10;;;;;;9174133;19;20018;-66
2022/11/09 14:22:16;;;;;;;4.38;1.30;;;15.30;76.10;;;;;;9173777;19;20372;-65
2022/11/09 14:25:38;;;;;;;10.30;2.03;;;15.30;76.10;;;;;;9177492;19;20019;-64
2022/11/09 14:29:11;;;;;;;9.07;1.23;;;15.30;76.90;;;;;;9175249;19;20011;-65
2022/11/09 14:32:37;;;;;;;7.57;1.58;;;15.30;76.20;;;;;;9175606;19;20022;-65
2022/11/09 14:36:01;;;;;;;7.78;1.65;;;15.30;76.10;;;;;;9169722;19;20002;-65
2022/11/09 14:39:28;;;;;;;7.22;1.05;;;15.30;76.10;;;;;;9174784;19;20048;-68
2022/11/09 14:42:54;;;;;;;8.77;1.63;;;15.20;76.50;;;;;;9174796;19;20018;-65
2022/11/09 14:46:21;;;;;;;10.77;1.38;;;15.20;75.90;;;;;;9170676;19;21500;-64
2022/11/09 14:49:46;;;;;;;11.18;1.33;;;15.20;75.80;;;;;;9176120;19;20022;-66
2022/11/09 14:53:08;;;;;;;8.07;1.27;;;15.20;75.70;;;;;;9162174;19;20031;-65
2022/11/09 14:56:32;;;;;;;7.68;1.42;;;15.20;75.70;;;;;;9169755;19;20014;-67
2022/11/09 14:59:56;;;;;;;5.72;0.98;;;15.20;75.70;;;;;;9177515;19;20625;-66
2022/11/09 15:03:24;;;;;;;3.85;1.20;;;15.10;75.60;;;;;;9171532;19;20018;-66
2022/11/09 15:06:51;;;;;;;6.05;1.30;;;15.10;75.60;;;;;;9168556;19;20053;-68
2022/11/09 15:10:21;;;;;;;8.57;1.20;;;15.10;75.50;;;;;;9174665;19;20029;-68
2022/11/09 15:13:44;;;;;;;5.75;2.10;;;15.10;75.40;;;;;;9172962;19;20038;-66
2022/11/09 15:17:16;;;;;;;7.63;1.63;;;15.10;75.50;;;;;;9172637;19;20029;-66
2022/11/09 15:21:12;;;;;;;7.70;1.45;;;15.00;75.30;;;;;;9165422;19;20022;-66
2022/11/09 15:24:49;;;;;;;5.10;1.40;;;15.00;75.20;;;;;;9165469;19;20029;-64
2022/11/09 15:28:25;;;;;;;6.70;1.60;;;15.00;75.80;;;;;;9172492;19;20089;-66
2022/11/09 15:31:59;;;;;;;5.22;1.52;;;15.00;75.20;;;;;;9176558;19;20475;-67
2022/11/09 15:35:21;;;;;;;9.03;1.20;;;14.90;75.10;;;;;;9172891;19;20030;-68
2022/11/09 15:38:55;;;;;;;11.43;1.25;;;14.90;75.20;;;;;;9172671;19;20457;-65
2022/11/09 15:42:20;;;;;;;6.75;1.13;;;14.90;75.10;;;;;;9168283;19;20166;-65
2022/11/09 15:45:42;;;;;;;;;;;14.90;75.10;;;;;;9172660;19;20027;-65
2022/11/09 15:49:17;;;;;;;7.00;1.23;;;14.80;75.20;;;;;;9171102;19;19921;-67
2022/11/09 15:52:39;;;;;;;7.72;1.55;;;14.80;75.70;;;;;;9171327;19;20085;-66
2022/11/09 15:56:01;;;;;;;4.60;0.90;;;14.80;75.20;;;;;;9170566;19;20014;-65
2022/11/09 15:59:27;;;;;;;7.45;1.40;;;14.80;75.10;;;;;;9174448;19;20421;-65
2022/11/09 16:02:49;;;;;;;10.82;1.15;;;14.80;75.10;;;;;;9174610;19;20110;-65
2022/11/09 16:06:16;;;;;;;12.05;1.63;;;14.70;75.10;;;;;;9173444;19;20018;-67
2022/11/09 16:09:40;;;;;;;10.80;1.73;;;14.70;75.00;;;;;;9180122;19;20090;-68
2022/11/09 16:13:02;;;;;;;9.98;1.88;;;14.70;75.00;;;;;;9183726;19;20483;-67
2022/11/09 16:16:27;;;;;;;9.20;1.50;;;14.70;75.00;;;;;;9180228;19;20018;-66
2022/11/09 16:19:52;;;;;;;6.43;1.20;;;14.60;74.90;;;;;;9182576;19;20026;-65
2022/11/09 16:23:14;;;;;;;5.60;1.45;;;14.60;74.90;;;;;;9182564;19;20014;-64
2022/11/09 16:26:37;;;;;;;10.15;1.75;;;14.60;75.00;;;;;;9182966;19;20674;-64
2022/11/09 16:30:00;;;;;;;6.95;1.27;;;14.60;75.00;;;;;;9183944;19;20827;-64
2022/11/09 16:33:25;;;;;;;4.13;1.08;;;14.60;75.10;;;;;;9182447;19;20494;-67
2022/11/09 16:36:47;;;;;;;8.43;1.25;;;14.60;75.10;;;;;;9181162;19;20022;-67
2022/11/09 16:40:18;;;;;;;6.82;1.33;;;14.50;75.10;;;;;;9178859;19;20854;-66
2022/11/09 16:43:41;;;;;;;5.40;1.20;;;14.50;75.20;;;;;;9182588;19;20026;-66
2022/11/09 16:47:06;;;;;;;7.73;1.60;;;14.40;75.20;;;;;;9178522;19;20365;-65
2022/11/09 16:50:30;;;;;;;7.43;1.58;;;14.40;75.30;;;;;;9168935;19;20488;-65
2022/11/09 16:53:52;;;;;;;11.95;1.73;;;14.40;75.30;;;;;;9163612;19;21636;-67